createdAt,value
2022-11-28T00:01:36.080Z,5.69
2022-11-28T00:04:04.727Z,5.53
2022-11-28T00:06:32.373Z,5.50
2022-11-28T00:09:00.347Z,5.48
2022-11-28T00:11:27.890Z,5.63
2022-11-28T00:13:56.090Z,5.80
2022-11-28T00:16:24.362Z,5.78
2022-11-28T00:18:54.220Z,5.93
2022-11-28T00:21:22.519Z,5.93
2022-11-28T00:23:50.914Z,5.96
2022-11-28T00:26:27.693Z,5.85
2022-11-28T00:28:56.123Z,5.71
2022-11-28T00:31:25.916Z,5.73
2022-11-28T00:33:54.349Z,5.65
2022-11-28T00:36:22.780Z,5.71
2022-11-28T00:38:51.422Z,5.64
2022-11-28T00:41:21.954Z,5.50
2022-11-28T00:43:50.694Z,5.55
2022-11-28T00:46:20.250Z,5.64
2022-11-28T00:48:48.679Z,5.93
2022-11-28T00:51:27.698Z,5.85
2022-11-28T00:53:57.786Z,5.73
2022-11-28T00:56:31.753Z,5.78
2022-11-28T00:58:59.776Z,6.00
2022-11-28T01:01:31.618Z,6.12
2022-11-28T01:04:01.665Z,6.18
2022-11-28T01:06:40.857Z,6.32
2022-11-28T01:09:14.832Z,6.47
2022-11-28T01:11:43.922Z,6.49
2022-11-28T01:14:12.722Z,6.51
2022-11-28T01:16:40.332Z,6.42
2022-11-28T01:19:08.375Z,6.29
2022-11-28T01:21:35.912Z,6.18
2022-11-28T01:24:03.811Z,6.38
2022-11-28T01:26:32.169Z,6.24
2022-11-28T01:29:00.609Z,6.15
2022-11-28T01:31:29.875Z,5.90
2022-11-28T01:33:57.850Z,5.92
2022-11-28T01:36:26.648Z,5.97
2022-11-28T01:38:54.336Z,5.97
2022-11-28T01:41:24.903Z,5.59
2022-11-28T01:43:59.888Z,5.01
2022-11-28T01:46:28.961Z,4.87
2022-11-28T01:49:07.358Z,4.59
2022-11-28T01:51:36.086Z,4.45
2022-11-28T01:54:04.975Z,4.69
2022-11-28T01:56:42.660Z,5.03
2022-11-28T01:59:12.278Z,5.41
2022-11-28T02:01:40.080Z,5.48
2022-11-28T02:04:07.598Z,5.64
2022-11-28T02:06:36.014Z,5.76
2022-11-28T02:09:06.282Z,5.63
2022-11-28T02:12:08.461Z,4.88
2022-11-28T02:14:38.773Z,4.72
2022-11-28T02:17:19.877Z,5.04
2022-11-28T02:20:18.536Z,5.17
2022-11-28T02:23:08.971Z,5.59
2022-11-28T02:25:39.179Z,5.60
2022-11-28T02:28:10.597Z,5.60
2022-11-28T02:31:00.783Z,5.63
2022-11-28T02:33:32.328Z,5.81
2022-11-28T02:36:13.462Z,5.88
2022-11-28T02:38:49.962Z,5.99
2022-11-28T02:41:42.117Z,6.07
2022-11-28T02:44:32.217Z,5.83
2022-11-28T02:47:03.038Z,5.82
2022-11-28T02:49:38.615Z,5.99
2022-11-28T02:52:38.173Z,5.93
2022-11-28T02:55:06.794Z,6.04
2022-11-28T02:57:39.608Z,6.08
2022-11-28T03:00:32.919Z,6.06
2022-11-28T03:03:31.145Z,6.28
2022-11-28T03:06:20.316Z,6.08
2022-11-28T03:09:20.739Z,6.17
2022-11-28T03:12:10.126Z,6.19
2022-11-28T03:14:58.479Z,6.09
2022-11-28T03:17:37.785Z,5.45
2022-11-28T03:20:40.815Z,5.43
2022-11-28T03:23:19.664Z,5.38
2022-11-28T03:26:13.628Z,5.65
2022-11-28T03:28:58.146Z,5.98
2022-11-28T03:31:35.482Z,5.76
2022-11-28T03:34:06.142Z,5.82
2022-11-28T03:37:04.837Z,5.92
2022-11-28T03:39:38.138Z,5.79
2022-11-28T03:42:08.272Z,5.73
2022-11-28T03:45:13.619Z,5.66
2022-11-28T03:47:44.885Z,5.68
2022-11-28T03:50:20.378Z,5.66
2022-11-28T03:52:57.090Z,5.41
2022-11-28T03:55:39.009Z,5.36
2022-11-28T03:58:40.512Z,5.45
2022-11-28T04:01:16.969Z,5.49
2022-11-28T04:03:49.777Z,5.55
2022-11-28T04:06:23.357Z,5.54
2022-11-28T04:09:03.598Z,5.54
2022-11-28T04:11:42.220Z,5.51
2022-11-28T04:14:20.114Z,5.74
2022-11-28T04:16:53.836Z,5.78
2022-11-28T04:19:43.147Z,5.90
2022-11-28T04:22:37.621Z,5.92
2022-11-28T04:25:10.298Z,5.88
2022-11-28T04:27:41.222Z,5.78
2022-11-28T04:30:11.247Z,5.85
2022-11-28T04:32:43.723Z,5.86
2022-11-28T04:35:16.809Z,5.88
2022-11-28T04:37:48.779Z,5.96
2022-11-28T04:40:17.496Z,5.96
2022-11-28T04:43:02.173Z,6.03
2022-11-28T04:45:36.010Z,5.88
2022-11-28T04:48:04.206Z,5.83
2022-11-28T04:50:43.674Z,5.90
2022-11-28T04:53:19.675Z,5.84
2022-11-28T04:55:53.107Z,5.70
2022-11-28T04:58:26.601Z,5.51
2022-11-28T05:00:55.661Z,5.54
2022-11-28T05:03:28.024Z,5.77
2022-11-28T05:05:56.120Z,5.71
2022-11-28T05:08:23.998Z,6.00
2022-11-28T05:10:51.430Z,6.15
2022-11-28T05:13:18.859Z,6.32
2022-11-28T05:15:46.593Z,6.38
2022-11-28T05:18:14.338Z,6.01
2022-11-28T05:20:41.957Z,5.84
2022-11-28T05:23:09.389Z,5.84
2022-11-28T05:25:39.783Z,6.11
2022-11-28T05:28:08.801Z,5.88
2022-11-28T05:30:36.219Z,5.92
2022-11-28T05:33:03.906Z,6.03
2022-11-28T05:35:31.751Z,6.12
2022-11-28T05:37:59.229Z,6.26
2022-11-28T05:40:26.786Z,6.38
2022-11-28T05:42:54.104Z,6.24
2022-11-28T05:45:21.535Z,6.30
2022-11-28T05:47:49.056Z,6.32
2022-11-28T05:50:16.493Z,6.38
2022-11-28T05:52:44.265Z,6.41
2022-11-28T05:55:11.667Z,6.41
2022-11-28T05:57:39.057Z,6.53
2022-11-28T06:00:07.253Z,6.60
2022-11-28T06:02:39.222Z,6.35
2022-11-28T06:05:27.219Z,6.33
2022-11-28T06:07:54.873Z,6.47
2022-11-28T06:10:22.730Z,6.38
2022-11-28T06:12:50.362Z,6.58
2022-11-28T06:15:17.856Z,6.86
2022-11-28T06:17:45.473Z,6.71
2022-11-28T06:20:13.092Z,6.28
2022-11-28T06:22:46.241Z,6.26
2022-11-28T06:25:17.020Z,6.42
2022-11-28T06:27:44.606Z,6.56
2022-11-28T06:30:12.567Z,6.68
2022-11-28T06:32:40.125Z,6.72
2022-11-28T06:35:07.967Z,6.69
2022-11-28T06:37:35.476Z,6.64
2022-11-28T06:40:03.926Z,6.55
2022-11-28T06:42:31.812Z,6.67
2022-11-28T06:44:59.498Z,6.78
2022-11-28T06:47:27.020Z,6.68
2022-11-28T06:49:54.580Z,6.65
2022-11-28T06:52:22.303Z,6.76
2022-11-28T06:54:49.868Z,6.71
2022-11-28T06:57:17.500Z,6.88
2022-11-28T06:59:45.186Z,6.74
2022-11-28T07:02:13.166Z,6.85
2022-11-28T07:04:42.427Z,6.99
2022-11-28T07:07:13.700Z,7.20
2022-11-28T07:09:44.349Z,7.24
2022-11-28T07:12:12.055Z,7.48
2022-11-28T07:14:39.639Z,7.42
2022-11-28T07:17:07.329Z,6.58
2022-11-28T07:19:34.912Z,6.74
2022-11-28T07:22:02.930Z,7.22
2022-11-28T07:24:30.690Z,7.48
2022-11-28T07:26:58.414Z,7.73
2022-11-28T07:29:30.865Z,7.53
2022-11-28T07:31:58.503Z,7.51
2022-11-28T07:34:26.073Z,7.49
2022-11-28T07:36:53.618Z,7.56
2022-11-28T07:39:21.440Z,7.32
2022-11-28T07:41:49.215Z,6.91
2022-11-28T07:44:19.912Z,7.12
2022-11-28T07:46:47.705Z,7.44
2022-11-28T07:49:17.724Z,7.58
2022-11-28T07:51:45.412Z,7.74
2022-11-28T07:54:13.050Z,7.72
2022-11-28T07:57:10.904Z,7.76
2022-11-28T07:59:28.325Z,7.73
2022-11-28T08:01:55.946Z,7.84
2022-11-28T08:04:23.548Z,8.00
2022-11-28T08:06:51.008Z,7.93
2022-11-28T08:09:19.411Z,8.07
2022-11-28T08:11:46.786Z,8.12
2022-11-28T08:14:14.433Z,8.08
2022-11-28T08:16:45.242Z,8.08
2022-11-28T08:19:13.514Z,7.90
2022-11-28T08:21:41.405Z,8.16
2022-11-28T08:24:09.062Z,8.29
2022-11-28T08:26:37.957Z,7.88
2022-11-28T08:29:05.412Z,7.84
2022-11-28T08:31:39.391Z,8.24
2022-11-28T08:34:09.807Z,8.38
2022-11-28T08:36:37.469Z,8.54
2022-11-28T08:41:57.205Z,8.64
2022-11-28T08:44:25.703Z,8.71
2022-11-28T08:46:53.911Z,8.79
2022-11-28T08:49:21.532Z,8.94
2022-11-28T08:51:49.083Z,9.13
2022-11-28T08:54:16.659Z,9.08
2022-11-28T08:56:45.446Z,9.15
2022-11-28T08:59:12.926Z,9.21
2022-11-28T09:01:59.052Z,9.03
2022-11-28T09:04:26.671Z,8.87
2022-11-28T09:06:54.254Z,9.26
2022-11-28T09:09:22.033Z,9.24
2022-11-28T09:11:49.453Z,9.01
2022-11-28T09:14:16.859Z,9.05
2022-11-28T09:16:44.429Z,9.25
2022-11-28T09:19:12.044Z,9.49
2022-11-28T09:21:40.620Z,9.39
2022-11-28T09:24:08.868Z,9.19
2022-11-28T09:26:36.254Z,8.52
2022-11-28T09:29:03.847Z,8.34
2022-11-28T09:31:31.477Z,8.22
2022-11-28T09:33:59.007Z,8.09
2022-11-28T09:36:28.231Z,8.30
2022-11-28T09:38:55.615Z,8.89
2022-11-28T09:41:34.035Z,9.32
2022-11-28T09:44:09.130Z,9.49
2022-11-28T09:46:38.905Z,9.53
2022-11-28T09:49:21.875Z,9.54
2022-11-28T09:52:10.114Z,9.42
2022-11-28T09:54:45.437Z,9.42
2022-11-28T09:57:24.033Z,9.78
2022-11-28T09:59:51.530Z,9.40
2022-11-28T10:02:28.375Z,9.77
2022-11-28T10:05:08.369Z,9.53
2022-11-28T10:07:54.845Z,9.46
2022-11-28T10:10:37.942Z,8.96
2022-11-28T10:13:15.563Z,8.83
2022-11-28T10:15:48.390Z,8.90
2022-11-28T10:18:30.878Z,9.44
2022-11-28T10:21:04.709Z,9.97
2022-11-28T10:23:42.390Z,10.15
2022-11-28T10:26:22.081Z,10.07
2022-11-28T10:28:53.839Z,10.38
2022-11-28T10:31:31.770Z,10.65
2022-11-28T10:34:07.658Z,10.24
2022-11-28T10:36:55.533Z,10.19
2022-11-28T10:39:25.847Z,10.50
2022-11-28T10:42:11.599Z,10.35
2022-11-28T10:45:03.043Z,10.53
2022-11-28T10:47:44.863Z,10.63
2022-11-28T10:50:18.114Z,10.62
2022-11-28T10:53:01.520Z,10.64
2022-11-28T10:56:00.957Z,10.22
2022-11-28T10:59:07.250Z,10.25
2022-11-28T11:01:38.156Z,10.51
2022-11-28T11:04:08.556Z,10.78
2022-11-28T11:06:41.745Z,10.67
2022-11-28T11:09:12.671Z,10.90
2022-11-28T11:11:50.645Z,10.73
2022-11-28T11:14:33.824Z,10.78
2022-11-28T11:17:01.548Z,10.66
2022-11-28T11:19:31.851Z,10.74
2022-11-28T11:22:16.716Z,10.35
2022-11-28T11:24:44.111Z,10.33
2022-11-28T11:27:21.465Z,10.67
2022-11-28T11:29:51.699Z,10.57
2022-11-28T11:32:23.909Z,10.38
2022-11-28T11:34:51.623Z,10.39
2022-11-28T11:37:23.251Z,10.31
2022-11-28T11:39:52.487Z,10.39
2022-11-28T11:42:26.104Z,10.52
2022-11-28T11:44:53.897Z,10.41
2022-11-28T11:47:41.995Z,10.51
2022-11-28T11:50:21.085Z,10.45
2022-11-28T11:53:05.751Z,10.25
2022-11-28T11:55:43.332Z,10.10
2022-11-28T11:58:17.042Z,10.23
2022-11-28T12:00:45.856Z,10.15
2022-11-28T12:03:31.249Z,10.25
2022-11-28T12:06:20.676Z,10.11
2022-11-28T12:08:51.854Z,9.98
2022-11-28T12:11:25.432Z,9.97
2022-11-28T12:13:53.545Z,10.30
2022-11-28T12:16:42.266Z,10.41
2022-11-28T12:19:31.209Z,10.39
2022-11-28T12:22:27.270Z,10.41
2022-11-28T12:25:00.510Z,10.43
2022-11-28T12:27:46.097Z,10.46
2022-11-28T12:30:26.598Z,10.47
2022-11-28T12:33:12.822Z,10.54
2022-11-28T12:35:43.513Z,10.65
2022-11-28T12:38:36.558Z,10.60
2022-11-28T12:41:27.520Z,10.69
2022-11-28T12:44:07.469Z,10.56
2022-11-28T12:46:46.003Z,10.57
2022-11-28T12:49:32.400Z,10.60
2022-11-28T12:52:02.374Z,10.58
2022-11-28T12:54:55.636Z,10.42
2022-11-28T12:58:06.747Z,10.58
2022-11-28T13:00:55.582Z,10.71
2022-11-28T13:03:41.138Z,10.67
2022-11-28T13:06:16.310Z,10.58
2022-11-28T13:09:17.472Z,10.60
2022-11-28T13:12:00.616Z,10.54
2022-11-28T13:14:53.047Z,10.35
2022-11-28T13:17:44.415Z,10.27
2022-11-28T13:20:42.206Z,10.33
2022-11-28T13:23:25.961Z,10.01
2022-11-28T13:26:05.689Z,10.20
2022-11-28T13:28:54.751Z,10.09
2022-11-28T13:32:03.472Z,9.77
2022-11-28T13:34:31.689Z,10.05
2022-11-28T13:40:05.991Z,10.28
2022-11-28T13:43:07.533Z,10.16
2022-11-28T13:45:59.264Z,10.11
2022-11-28T13:51:32.917Z,9.91
2022-11-28T13:54:19.279Z,9.72
2022-11-28T13:57:03.722Z,9.83
2022-11-28T13:59:32.876Z,9.98
2022-11-28T14:02:03.928Z,10.09
2022-11-28T14:04:32.935Z,9.71
2022-11-28T14:07:07.797Z,9.76
2022-11-28T14:09:44.839Z,9.77
2022-11-28T14:12:34.827Z,9.83
2022-11-28T14:15:20.543Z,9.95
2022-11-28T14:18:55.100Z,9.84
2022-11-28T14:21:16.346Z,9.82
2022-11-28T14:24:11.672Z,9.78
2022-11-28T14:26:43.221Z,9.53
2022-11-28T14:29:26.893Z,9.41
2022-11-28T14:32:27.823Z,9.33
2022-11-28T14:34:47.047Z,9.24
2022-11-28T14:37:50.861Z,9.28
2022-11-28T14:41:03.616Z,9.26
2022-11-28T14:43:32.057Z,9.10
2022-11-28T14:46:16.339Z,9.08
2022-11-28T14:48:59.087Z,9.24
2022-11-28T14:51:48.503Z,9.14
2022-11-28T14:54:37.504Z,9.07
2022-11-28T14:57:27.282Z,9.22
2022-11-28T14:59:58.647Z,9.09
2022-11-28T15:02:42.831Z,8.98
2022-11-28T15:05:30.380Z,9.19
2022-11-28T15:08:10.591Z,9.16
2022-11-28T15:11:07.577Z,9.18
2022-11-28T15:13:41.164Z,8.97
2022-11-28T15:16:14.971Z,8.68
2022-11-28T15:18:50.673Z,8.69
2022-11-28T15:21:20.021Z,8.71
2022-11-28T15:23:49.641Z,8.62
2022-11-28T15:26:28.058Z,8.52
2022-11-28T15:29:18.226Z,8.53
2022-11-28T15:31:50.673Z,8.52
2022-11-28T15:34:35.663Z,8.39
2022-11-28T15:37:16.567Z,8.50
2022-11-28T15:39:47.437Z,8.59
2022-11-28T15:42:36.042Z,8.70
2022-11-28T15:45:09.301Z,8.34
2022-11-28T15:47:38.111Z,8.22
2022-11-28T15:50:47.211Z,8.23
2022-11-28T15:53:18.018Z,8.33
2022-11-28T15:55:46.155Z,8.45
2022-11-28T15:58:17.762Z,8.44
2022-11-28T16:00:50.715Z,8.37
2022-11-28T16:03:24.703Z,8.45
2022-11-28T16:05:56.214Z,8.37
2022-11-28T16:08:37.714Z,8.35
2022-11-28T16:11:07.679Z,8.43
2022-11-28T16:13:38.215Z,8.38
2022-11-28T16:16:12.706Z,8.35
2022-11-28T16:18:45.177Z,8.24
2022-11-28T16:21:14.067Z,8.14
2022-11-28T16:23:41.678Z,8.01
2022-11-28T16:26:30.009Z,8.10
2022-11-28T16:29:00.496Z,7.96
2022-11-28T16:31:29.434Z,7.86
2022-11-28T16:33:58.169Z,7.70
2022-11-28T16:36:37.480Z,7.71
2022-11-28T16:39:15.761Z,7.91
2022-11-28T16:41:52.108Z,7.85
2022-11-28T16:47:33.196Z,7.81
2022-11-28T16:50:15.441Z,7.83
2022-11-28T16:52:59.024Z,7.93
2022-11-28T16:55:29.032Z,7.76
2022-11-28T16:58:08.816Z,7.79
2022-11-28T17:00:40.740Z,7.85
2022-11-28T17:03:49.928Z,7.82
2022-11-28T17:06:24.373Z,7.82
2022-11-28T17:08:52.497Z,7.84
2022-11-28T17:11:24.171Z,7.69
2022-11-28T17:13:51.924Z,7.75
2022-11-28T17:16:22.274Z,7.45
2022-11-28T17:18:50.354Z,7.71
2022-11-28T17:21:27.044Z,7.99
2022-11-28T17:23:55.808Z,8.11
2022-11-28T17:26:23.307Z,8.15
2022-11-28T17:28:50.903Z,8.02
2022-11-28T17:31:19.047Z,7.89
2022-11-28T17:33:46.629Z,7.94
2022-11-28T17:36:14.149Z,7.94
2022-11-28T17:38:41.599Z,7.81
2022-11-28T17:41:13.836Z,7.76
2022-11-28T17:43:41.673Z,7.71
2022-11-28T17:46:09.884Z,7.71
2022-11-28T17:48:46.910Z,7.76
2022-11-28T17:51:20.409Z,7.89
2022-11-28T17:53:48.413Z,7.94
2022-11-28T17:56:17.197Z,7.97
2022-11-28T17:58:45.176Z,7.99
2022-11-28T18:01:17.997Z,7.78
2022-11-28T18:03:50.794Z,7.74
2022-11-28T18:06:20.123Z,7.78
2022-11-28T18:08:50.671Z,7.64
2022-11-28T18:11:19.697Z,7.59
2022-11-28T18:13:49.354Z,7.55
2022-11-28T18:16:21.263Z,7.52
2022-11-28T18:18:50.126Z,7.49
2022-11-28T18:21:19.754Z,7.82
2022-11-28T18:23:52.070Z,7.67
2022-11-28T18:26:23.087Z,7.75
2022-11-28T18:28:51.412Z,7.70
2022-11-28T18:31:26.598Z,7.68
2022-11-28T18:34:00.273Z,7.71
2022-11-28T18:36:32.829Z,7.91
2022-11-28T18:39:03.301Z,7.86
2022-11-28T18:41:31.019Z,7.81
2022-11-28T18:44:00.619Z,7.77
2022-11-28T18:46:29.690Z,7.89
2022-11-28T18:48:57.619Z,7.97
2022-11-28T18:51:27.664Z,7.93
2022-11-28T18:53:56.687Z,7.92
2022-11-28T18:56:31.988Z,7.97
2022-11-28T18:58:59.892Z,7.89
2022-11-28T19:01:36.673Z,7.81
2022-11-28T19:04:11.601Z,7.79
2022-11-28T19:07:29.615Z,7.85
2022-11-28T19:09:59.277Z,7.99
2022-11-28T19:12:26.831Z,7.95
2022-11-28T19:15:00.290Z,7.94
2022-11-28T19:17:29.806Z,7.92
2022-11-28T19:19:57.393Z,7.93
2022-11-28T19:22:25.041Z,7.93
2022-11-28T19:24:52.811Z,7.87
2022-11-28T19:30:05.289Z,7.77
2022-11-28T19:32:34.303Z,7.84
2022-11-28T19:35:02.261Z,7.75
2022-11-28T19:37:30.018Z,7.81
2022-11-28T19:40:02.303Z,7.83
2022-11-28T19:42:31.534Z,7.84
2022-11-28T19:45:00.497Z,7.87
2022-11-28T19:47:28.259Z,7.87
2022-11-28T19:49:55.714Z,7.75
2022-11-28T19:52:23.244Z,7.85
2022-11-28T19:54:51.192Z,7.90
2022-11-28T19:57:20.840Z,7.93
2022-11-28T19:59:48.634Z,7.78
2022-11-28T20:02:17.767Z,7.61
2022-11-28T20:04:45.698Z,7.75
2022-11-28T20:07:16.391Z,7.71
2022-11-28T20:09:44.274Z,7.54
2022-11-28T20:12:12.171Z,7.60
2022-11-28T20:14:39.711Z,7.79
2022-11-28T20:17:07.397Z,7.64
2022-11-28T20:19:34.842Z,7.72
2022-11-28T20:22:03.735Z,7.77
2022-11-28T20:24:31.428Z,7.80
2022-11-28T20:26:59.088Z,7.73
2022-11-28T20:29:28.039Z,7.68
2022-11-28T20:31:58.395Z,7.57
2022-11-28T20:34:27.323Z,7.54
2022-11-28T20:36:55.014Z,7.52
2022-11-28T20:39:22.881Z,7.47
2022-11-28T20:41:50.535Z,7.42
2022-11-28T20:44:19.158Z,7.46
2022-11-28T20:46:47.322Z,7.38
2022-11-28T20:49:27.606Z,7.50
2022-11-28T20:52:28.531Z,7.63
2022-11-28T20:54:59.023Z,7.65
2022-11-28T20:57:29.876Z,7.59
2022-11-28T21:00:06.244Z,7.70
2022-11-28T21:02:46.346Z,7.66
2022-11-28T21:05:37.063Z,7.68
2022-11-28T21:11:25.593Z,7.75
2022-11-28T21:14:07.772Z,7.57
2022-11-28T21:16:37.002Z,7.41
2022-11-28T21:19:09.171Z,7.11
2022-11-28T21:21:44.688Z,7.03
2022-11-28T21:24:14.298Z,7.02
2022-11-28T21:26:46.615Z,7.32
2022-11-28T21:29:24.581Z,7.55
2022-11-28T21:31:52.713Z,7.71
2022-11-28T21:34:23.059Z,7.38
2022-11-28T21:36:54.753Z,7.53
2022-11-28T21:39:23.114Z,7.33
2022-11-28T21:41:58.440Z,7.39
2022-11-28T21:44:34.073Z,7.33
2022-11-28T21:47:05.120Z,7.45
2022-11-28T21:49:33.683Z,7.53
2022-11-28T21:52:02.712Z,7.49
2022-11-28T21:54:30.283Z,7.41
2022-11-28T23:53:54.076Z,7.60
2022-11-28T23:56:26.510Z,7.02
2022-11-28T23:58:56.009Z,6.55
